Time;durP1;ratioP1;P1;durP2;ratioP2;P2;SDS_P1;SDS_P2;PMS_P1;PMS_P2;Temp;Humidity;BMP_temperature;BMP_pressure;BME280_temperature;BME280_humidity;BME280_pressure;Samples;Min_cycle;Max_cycle;Signal;HPM_P1;HPM_P2
2021/07/24 00:00:39;;;;;;;;;14.75;13.50;;;;;24.70;46.91;99915.47;4973363;28;68291;-60
2021/07/24 00:03:04;;;;;;;;;15.75;14.00;;;;;24.65;46.75;99910.03;4986466;28;48202;-61
2021/07/24 00:05:30;;;;;;;;;15.00;14.00;;;;;24.62;46.20;99897.91;4973132;28;45931;-62
2021/07/24 00:07:55;;;;;;;;;17.75;16.00;;;;;24.62;45.68;99883.69;4973885;28;45572;-61
2021/07/24 00:10:21;;;;;;;;;20.00;15.00;;;;;24.61;45.42;99872.09;4975055;28;45466;-61
2021/07/24 00:12:49;;;;;;;;;16.75;12.00;;;;;24.60;45.48;99865.94;4979573;27;45492;-61
2021/07/24 00:15:15;;;;;;;;;14.00;12.75;;;;;24.60;45.68;99857.88;4971222;28;48321;-61
2021/07/24 00:17:40;;;;;;;;;17.25;16.00;;;;;24.64;45.88;99852.81;4971627;28;71442;-61
2021/07/24 00:20:07;;;;;;;;;17.75;14.25;;;;;24.64;45.59;99847.44;4975108;28;45452;-59
2021/07/24 00:22:32;;;;;;;;;19.50;17.50;;;;;24.65;45.49;99865.19;4984887;28;45433;-61
2021/07/24 00:24:57;;;;;;;;;14.25;11.50;;;;;24.67;46.25;99868.44;4979657;28;51114;-60
2021/07/24 00:27:23;;;;;;;;;13.50;13.00;;;;;24.65;46.31;99875.94;4972728;28;74177;-61
2021/07/24 00:29:50;;;;;;;;;11.75;11.75;;;;;24.62;46.80;99870.25;4988289;28;66237;-60
2021/07/24 00:32:15;;;;;;;;;22.50;20.50;;;;;24.58;46.30;99861.84;4974126;28;45237;-61
2021/07/24 00:34:41;;;;;;;;;17.50;15.75;;;;;24.55;45.68;99851.59;4984846;28;71917;-61
2021/07/24 00:37:06;;;;;;;;;16.00;15.00;;;;;24.55;45.82;99849.75;4974631;28;69167;-62
2021/07/24 00:39:31;;;;;;;;;16.25;13.25;;;;;24.56;46.89;99855.91;4974240;28;45265;-62
2021/07/24 00:42:06;;;;;;;;;14.50;13.25;;;;;24.57;47.15;99860.22;4981716;28;61418;-61
2021/07/24 00:44:32;;;;;;;;;16.75;15.25;;;;;24.52;47.75;99865.53;4956614;28;51137;-61
2021/07/24 00:46:57;;;;;;;;;17.25;13.75;;;;;24.48;47.86;99873.25;4979275;28;46389;-60
2021/07/24 00:49:22;;;;;;;;;15.00;14.00;;;;;24.45;48.29;99887.97;4971433;28;62687;-61
2021/07/24 00:51:48;;;;;;;;;17.25;16.00;;;;;24.45;48.33;99916.72;4973433;28;45591;-61
2021/07/24 00:54:14;;;;;;;;;21.75;17.75;;;;;24.42;48.14;99919.88;4979151;28;47057;-61
2021/07/24 00:56:39;;;;;;;;;17.75;14.00;;;;;24.36;47.17;99920.84;4976885;28;45457;-61
2021/07/24 00:59:05;;;;;;;;;16.50;16.50;;;;;24.33;46.46;99926.72;4976906;28;45475;-62
2021/07/24 01:01:30;;;;;;;;;21.00;20.25;;;;;24.32;46.45;99920.53;4974065;28;45449;-61
2021/07/24 01:03:56;;;;;;;;;20.75;18.25;;;;;24.34;46.78;99907.69;4970963;28;45550;-61
2021/07/24 01:06:21;;;;;;;;;16.75;14.50;;;;;24.35;46.41;99917.38;4977447;28;72253;-61
2021/07/24 01:08:47;;;;;;;;;18.25;16.00;;;;;24.35;46.71;99936.16;4972687;28;62605;-61
2021/07/24 01:11:12;;;;;;;;;12.75;12.50;;;;;24.36;46.12;99905.56;4980821;28;45494;-60
2021/07/24 01:13:41;;;;;;;;;15.25;13.00;;;;;24.37;46.65;99901.84;4977120;28;45511;-61
2021/07/24 01:16:07;;;;;;;;;17.00;13.25;;;;;24.39;45.98;99899.69;4984784;28;45360;-61
2021/07/24 01:18:32;;;;;;;;;16.75;15.25;;;;;24.43;46.35;99883.94;4981738;28;45498;-60
2021/07/24 01:21:00;;;;;;;;;19.00;16.00;;;;;24.45;46.79;99884.50;4973304;28;45482;-60
2021/07/24 01:23:26;;;;;;;;;17.50;15.75;;;;;24.47;46.54;99868.13;4977656;28;51871;-62
2021/07/24 01:25:52;;;;;;;;;18.50;15.50;;;;;24.48;46.46;99859.84;5042599;28;69628;-61
2021/07/24 01:28:24;;;;;;;;;13.25;12.00;;;;;24.51;46.65;99871.94;4994723;28;45482;-60
2021/07/24 01:30:50;;;;;;;;;16.50;15.25;;;;;24.51;46.99;99878.16;4970271;28;45555;-61
2021/07/24 01:33:15;;;;;;;;;13.00;13.00;;;;;24.50;47.05;99873.84;4972990;28;45364;-61
2021/07/24 01:35:45;;;;;;;;;15.00;13.00;;;;;24.50;47.31;99884.56;4988472;28;68799;-61
2021/07/24 01:38:10;;;;;;;;;14.25;14.00;;;;;24.47;47.54;99884.25;4974502;28;45394;-60
2021/07/24 01:40:36;;;;;;;;;15.50;13.00;;;;;24.43;47.78;99884.72;4977890;28;70409;-61
2021/07/24 01:43:01;;;;;;;;;17.25;13.75;;;;;24.39;47.68;99888.94;4964599;28;46023;-61
2021/07/24 01:45:26;;;;;;;;;16.00;13.00;;;;;24.36;47.91;99889.47;4972151;28;72577;-61
2021/07/24 01:47:52;;;;;;;;;15.50;15.50;;;;;24.33;48.23;99889.13;4993941;28;45264;-62
2021/07/24 01:53:01;;;;;;;;;13.00;13.00;;;;;24.25;48.50;99895.72;4980316;28;45872;-61
2021/07/24 01:55:34;;;;;;;;;18.50;14.00;;;;;24.23;48.34;99887.09;4990940;28;72280;-62
2021/07/24 01:58:02;;;;;;;;;12.50;12.00;;;;;24.20;48.74;99891.06;4983815;28;45399;-61
2021/07/24 02:00:28;;;;;;;;;13.75;13.75;;;;;24.17;48.98;99883.50;4977418;28;45623;-61
2021/07/24 02:02:54;;;;;;;;;17.25;15.25;;;;;24.14;48.57;99878.59;4970235;28;46075;-61
2021/07/24 02:05:45;;;;;;;;;15.25;14.00;;;;;24.10;48.99;99862.19;4971348;28;45385;-60
2021/07/24 02:08:11;;;;;;;;;16.50;16.00;;;;;24.06;49.38;99874.47;4976709;28;45236;-60
2021/07/24 02:10:42;;;;;;;;;12.75;12.50;;;;;24.00;49.13;99899.56;4978668;28;45311;-60
2021/07/24 02:13:07;;;;;;;;;14.25;14.25;;;;;23.97;48.83;99908.06;4959968;28;46299;-61
2021/07/24 02:15:33;;;;;;;;;14.75;14.25;;;;;23.94;49.80;99913.91;4971495;28;72912;-61
2021/07/24 02:17:59;;;;;;;;;14.00;13.25;;;;;23.93;50.20;99928.38;4959740;28;69390;-60
2021/07/24 02:20:24;;;;;;;;;17.00;14.75;;;;;23.92;50.30;99905.28;5008038;28;45541;-61
2021/07/24 02:22:49;;;;;;;;;13.75;12.00;;;;;23.93;51.36;99912.28;4992670;28;45905;-62
2021/07/24 02:25:15;;;;;;;;;11.00;10.25;;;;;23.94;51.87;99919.28;4987734;28;45486;-60
2021/07/24 02:27:45;;;;;;;;;14.50;12.00;;;;;23.96;52.19;99935.97;4977604;27;45290;-61
2021/07/24 02:30:10;;;;;;;;;11.00;11.00;;;;;23.98;52.53;99940.06;4975498;28;45517;-61
2021/07/24 02:32:36;;;;;;;;;11.75;11.00;;;;;24.01;52.24;99944.13;4982328;28;51530;-61
2021/07/24 02:35:01;;;;;;;;;10.50;10.50;;;;;24.04;52.66;99940.97;4974120;28;73497;-61
2021/07/24 02:37:27;;;;;;;;;11.25;9.25;;;;;24.06;52.59;99938.88;4986159;28;68281;-61
2021/07/24 02:39:52;;;;;;;;;9.25;9.25;;;;;24.08;52.54;99944.81;4974592;28;68785;-61
2021/07/24 02:42:17;;;;;;;;;9.25;6.50;;;;;24.12;53.02;99939.75;4974271;28;74564;-61
2021/07/24 02:44:43;;;;;;;;;8.75;8.00;;;;;24.14;52.68;99946.53;4990838;28;74230;-60
2021/07/24 02:47:08;;;;;;;;;7.75;7.75;;;;;24.18;52.86;99949.53;4992045;28;45468;-62
2021/07/24 02:49:34;;;;;;;;;8.00;8.00;;;;;24.21;52.77;99942.88;4979278;28;45468;-61
2021/07/24 02:51:59;;;;;;;;;9.00;8.25;;;;;24.23;53.33;99938.09;4980644;28;45485;-60
2021/07/24 02:54:25;;;;;;;;;11.25;9.00;;;;;24.27;53.32;99933.88;4975536;28;56604;-61
2021/07/24 02:56:50;;;;;;;;;9.00;8.50;;;;;24.29;53.63;99937.13;4974433;28;69337;-61
2021/07/24 02:59:15;;;;;;;;;10.25;9.00;;;;;24.31;53.48;99935.03;5012627;28;70571;-60
2021/07/24 03:01:41;;;;;;;;;10.00;9.00;;;;;24.34;53.19;99942.59;5010838;27;65716;-61
2021/07/24 03:04:06;;;;;;;;;14.00;10.00;;;;;24.36;53.03;99935.09;4982849;27;45226;-61
2021/07/24 03:06:32;;;;;;;;;8.00;7.75;;;;;24.40;53.26;99940.78;4974433;28;68344;-61
2021/07/24 03:08:57;;;;;;;;;9.25;8.00;;;;;24.41;53.07;99945.91;4975390;28;45356;-61
2021/07/24 03:11:22;;;;;;;;;11.00;10.00;;;;;24.42;53.05;99947.53;4974099;28;72177;-61
2021/07/24 03:13:48;;;;;;;;;9.25;9.25;;;;;24.43;53.20;99954.53;4973161;28;73179;-60
2021/07/24 03:16:13;;;;;;;;;7.00;6.25;;;;;24.44;53.39;99948.09;4989721;27;45376;-62
2021/07/24 03:18:39;;;;;;;;;11.00;7.50;;;;;24.44;53.32;99940.06;4981462;28;45470;-62
2021/07/24 03:21:04;;;;;;;;;9.00;6.50;;;;;24.42;52.31;99950.22;4980767;28;73633;-61
2021/07/24 03:23:29;;;;;;;;;9.00;9.00;;;;;24.40;52.08;99955.03;4974979;28;45336;-61
2021/07/24 03:25:55;;;;;;;;;9.00;7.25;;;;;24.40;52.83;99959.59;4981521;28;46694;-61
2021/07/24 03:28:20;;;;;;;;;9.25;9.00;;;;;24.39;52.93;99963.31;4989067;28;65365;-60
2021/07/24 03:30:45;;;;;;;;;9.00;6.00;;;;;24.35;53.01;99965.69;4974189;28;67892;-60
2021/07/24 03:33:11;;;;;;;;;7.75;7.50;;;;;24.33;52.86;99965.13;4974180;28;73229;-60
2021/07/24 03:35:36;;;;;;;;;8.75;8.50;;;;;24.30;52.71;99973.66;4974881;28;45301;-59
2021/07/24 03:38:05;;;;;;;;;6.50;6.25;;;;;24.27;52.63;99977.63;5000970;27;45551;-60
2021/07/24 03:40:30;;;;;;;;;5.00;5.00;;;;;24.24;51.54;99983.47;4973752;28;46219;-61
2021/07/24 03:42:56;;;;;;;;;6.00;6.00;;;;;24.22;52.06;99988.25;4977366;28;45536;-60
2021/07/24 03:45:21;;;;;;;;;6.00;5.00;;;;;24.22;51.07;99990.16;4991780;27;62116;-60
2021/07/24 03:47:47;;;;;;;;;6.75;6.00;;;;;24.20;50.79;99995.75;4994049;28;45306;-60
2021/07/24 03:50:12;;;;;;;;;7.25;6.75;;;;;24.19;50.95;100012.09;4984245;28;65206;-61
2021/07/24 03:52:37;;;;;;;;;7.00;5.00;;;;;24.17;50.71;100024.94;4984356;27;69701;-61
2021/07/24 03:55:03;;;;;;;;;9.00;5.75;;;;;24.17;50.38;100020.38;4973610;28;68790;-61
2021/07/24 03:57:28;;;;;;;;;6.25;6.00;;;;;24.13;51.03;100014.69;4991608;28;45652;-61
2021/07/24 03:59:54;;;;;;;;;4.25;4.25;;;;;24.13;50.78;100013.84;4989829;28;73386;-60
2021/07/24 04:02:23;;;;;;;;;4.00;4.00;;;;;24.13;50.48;100038.84;4979692;28;57391;-61
2021/07/24 04:04:52;;;;;;;;;6.50;5.25;;;;;24.11;50.34;100049.00;4989785;28;45432;-61
2021/07/24 04:07:18;;;;;;;;;5.75;5.75;;;;;24.11;50.25;100049.00;4980445;28;45598;-61
2021/07/24 04:09:43;;;;;;;;;7.50;6.00;;;;;24.11;50.39;100043.63;4972843;28;53776;-61
2021/07/24 04:12:10;;;;;;;;;6.50;5.50;;;;;24.09;50.33;100061.84;4974819;28;45324;-61
2021/07/24 04:14:35;;;;;;;;;5.50;4.00;;;;;24.09;50.60;100066.41;4981559;28;45283;-61
2021/07/24 04:17:01;;;;;;;;;6.75;5.50;;;;;24.08;50.60;100060.22;4986365;28;62281;-61
2021/07/24 04:19:26;;;;;;;;;4.25;4.25;;;;;24.04;50.66;100064.41;4968171;28;53863;-60
2021/07/24 04:21:51;;;;;;;;;5.75;5.25;;;;;24.02;50.17;100071.88;4982897;28;71123;-61
2021/07/24 04:24:18;;;;;;;;;8.25;5.25;;;;;23.99;50.32;100083.09;4979074;28;45446;-61
2021/07/24 04:26:43;;;;;;;;;5.50;5.50;;;;;23.94;50.76;100065.00;4988681;27;45402;-61
2021/07/24 04:29:09;;;;;;;;;4.25;4.25;;;;;23.90;50.38;100076.44;4973314;28;69986;-60
2021/07/24 04:31:36;;;;;;;;;5.25;5.25;;;;;23.84;50.15;100081.72;4974479;28;45343;-61
2021/07/24 04:34:01;;;;;;;;;7.50;6.00;;;;;23.80;50.54;100083.22;4974464;28;45414;-61
2021/07/24 04:36:26;;;;;;;;;5.00;4.00;;;;;23.74;50.27;100073.44;4973768;28;70345;-60
2021/07/24 04:38:52;;;;;;;;;4.50;4.00;;;;;23.70;50.10;100081.13;4974514;28;45287;-60
2021/07/24 04:41:18;;;;;;;;;4.25;4.25;;;;;23.67;50.04;100070.06;4973456;28;73106;-61
2021/07/24 04:43:44;;;;;;;;;7.00;5.00;;;;;23.62;50.33;100078.00;4973876;28;45415;-61
2021/07/24 04:46:10;;;;;;;;;5.25;4.50;;;;;23.59;50.57;100083.81;4974390;28;45497;-61
2021/07/24 04:48:35;;;;;;;;;5.75;5.00;;;;;23.55;50.15;100080.81;4974359;28;46071;-61
2021/07/24 04:51:01;;;;;;;;;7.50;4.25;;;;;23.50;50.83;100091.41;4972852;28;68890;-61
2021/07/24 04:53:26;;;;;;;;;7.00;5.00;;;;;23.44;51.07;100082.41;4974442;28;45326;-61
2021/07/24 04:55:52;;;;;;;;;8.00;7.00;;;;;23.38;51.31;100084.16;4973424;28;69662;-61
2021/07/24 04:58:18;;;;;;;;;5.00;5.00;;;;;23.34;51.50;100091.03;4974385;28;45317;-60
2021/07/24 05:00:44;;;;;;;;;7.00;5.50;;;;;23.32;51.27;100100.34;4972975;28;45929;-62
2021/07/24 05:03:15;;;;;;;;;9.75;6.50;;;;;23.26;50.91;100108.28;4973207;28;45432;-62
2021/07/24 05:05:41;;;;;;;;;8.00;5.25;;;;;23.25;51.08;100103.16;4974445;28;45205;-61
2021/07/24 05:08:07;;;;;;;;;5.00;4.75;;;;;23.20;51.67;100093.09;4974062;28;46053;-60
2021/07/24 05:10:32;;;;;;;;;5.75;5.00;;;;;23.16;51.64;100105.31;4973725;28;49901;-60
2021/07/24 05:12:58;;;;;;;;;9.00;6.00;;;;;23.13;51.90;100103.09;4974047;28;45789;-60
2021/07/24 05:15:24;;;;;;;;;6.75;6.00;;;;;23.10;51.92;100108.91;4974139;28;45433;-61
2021/07/24 05:17:49;;;;;;;;;5.75;5.00;;;;;23.07;51.50;100120.09;4973888;28;46203;-62
2021/07/24 05:20:15;;;;;;;;;8.00;4.50;;;;;23.05;51.85;100123.00;4972923;28;72241;-61
2021/07/24 05:22:40;;;;;;;;;4.00;4.00;;;;;23.04;52.03;100120.56;4973810;28;45343;-61
2021/07/24 05:25:06;;;;;;;;;6.50;6.50;;;;;23.03;52.63;100124.28;4973099;28;66065;-61
2021/07/24 05:27:31;;;;;;;;;7.00;5.50;;;;;23.02;52.29;100118.13;4975873;27;45962;-61
2021/07/24 05:29:57;;;;;;;;;6.00;5.50;;;;;23.00;52.60;100114.03;4973278;28;57185;-60
2021/07/24 05:32:22;;;;;;;;;8.25;7.00;;;;;23.00;52.61;100114.84;4972980;28;63983;-60
2021/07/24 05:34:47;;;;;;;;;8.25;5.75;;;;;22.98;52.75;100120.41;4972823;28;69561;-60
2021/07/24 05:37:13;;;;;;;;;7.50;6.00;;;;;22.93;53.45;100117.59;4972884;28;69204;-61
2021/07/24 05:39:38;;;;;;;;;8.00;5.00;;;;;22.92;53.59;100113.28;4972721;28;70467;-62
2021/07/24 05:42:04;;;;;;;;;7.25;6.50;;;;;22.91;53.31;100114.34;4972877;28;65358;-61
2021/07/24 05:44:29;;;;;;;;;7.00;5.00;;;;;22.93;53.06;100108.78;4973641;28;45321;-61
2021/07/24 05:46:54;;;;;;;;;9.00;6.25;;;;;22.92;53.81;100115.16;4973589;28;45339;-61
2021/07/24 05:49:20;;;;;;;;;9.50;8.25;;;;;22.92;53.42;100101.78;4973510;28;45255;-60
2021/07/24 05:51:45;;;;;;;;;8.25;6.50;;;;;22.89;53.62;100095.00;4971414;28;68835;-61
2021/07/24 05:54:11;;;;;;;;;6.25;6.00;;;;;22.88;53.97;100103.28;4973143;28;53299;-60
2021/07/24 05:56:36;;;;;;;;;7.25;7.00;;;;;22.88;53.39;100101.41;4972427;28;71088;-61
2021/07/24 05:59:02;;;;;;;;;6.25;5.50;;;;;22.88;53.65;100097.91;4973007;28;53289;-62
2021/07/24 06:01:27;;;;;;;;;6.75;6.75;;;;;22.88;53.61;100098.72;4973442;28;45441;-61
2021/07/24 06:03:53;;;;;;;;;6.00;6.00;;;;;22.90;54.18;100098.50;4975945;28;45415;-60
2021/07/24 06:06:18;;;;;;;;;7.75;7.00;;;;;22.91;53.61;100108.19;4976198;28;46110;-61
2021/07/24 06:08:44;;;;;;;;;7.25;7.00;;;;;22.94;53.49;100105.84;4975353;28;70267;-61
2021/07/24 06:11:09;;;;;;;;;8.25;7.00;;;;;22.98;53.68;100107.03;4975471;28;65937;-61
2021/07/24 06:13:34;;;;;;;;;7.00;5.75;;;;;23.01;53.67;100105.75;4975359;28;70558;-62
2021/07/24 06:16:00;;;;;;;;;7.25;6.00;;;;;23.05;53.22;100100.75;4976114;28;46090;-60
2021/07/24 06:18:25;;;;;;;;;6.25;5.50;;;;;23.08;53.20;100116.38;4975406;28;67195;-61
2021/07/24 06:20:50;;;;;;;;;7.00;6.25;;;;;23.09;53.02;100107.28;4975282;28;65314;-61
2021/07/24 06:23:16;;;;;;;;;7.75;6.50;;;;;23.10;53.66;100109.72;4975493;28;67298;-61
2021/07/24 06:25:45;;;;;;;;;19.25;16.00;;;;;23.16;53.18;100115.22;4975975;28;46991;-62
2021/07/24 06:28:10;;;;;;;;;7.50;6.00;;;;;23.18;53.05;100108.59;4976153;28;45854;-61
2021/07/24 06:30:36;;;;;;;;;7.25;7.25;;;;;23.22;53.02;100107.13;4975175;28;66258;-61
2021/07/24 06:33:01;;;;;;;;;7.75;5.50;;;;;23.27;52.75;100109.91;4978174;27;45672;-60
2021/07/24 06:35:27;;;;;;;;;5.00;4.75;;;;;23.32;52.36;100111.06;4976075;28;45896;-60
2021/07/24 06:37:52;;;;;;;;;6.25;6.25;;;;;23.39;52.19;100109.94;4975378;28;60142;-60
2021/07/24 06:40:18;;;;;;;;;6.25;6.00;;;;;23.46;51.89;100101.75;4976170;28;45384;-60
2021/07/24 06:42:43;;;;;;;;;7.00;4.00;;;;;23.53;52.28;100107.84;4974780;28;45398;-60
2021/07/24 06:45:09;;;;;;;;;6.50;5.25;;;;;23.62;51.67;100105.59;4974832;28;75653;-61
2021/07/24 06:47:34;;;;;;;;;7.00;5.75;;;;;23.69;51.65;100110.88;4975971;28;45240;-61
2021/07/24 06:49:59;;;;;;;;;7.00;5.75;;;;;23.79;50.97;100118.31;4975628;28;46187;-60
2021/07/24 06:52:25;;;;;;;;;5.00;5.00;;;;;23.89;50.68;100117.72;4975338;28;63415;-62
2021/07/24 06:54:50;;;;;;;;;6.00;6.00;;;;;23.93;50.57;100118.88;4974567;28;74529;-60
2021/07/24 06:57:15;;;;;;;;;6.75;5.75;;;;;23.99;50.40;100117.97;4974684;28;73309;-61
2021/07/24 06:59:41;;;;;;;;;5.00;5.00;;;;;24.06;50.13;100121.34;4974973;28;69432;-60
2021/07/24 07:02:06;;;;;;;;;6.25;5.50;;;;;24.14;49.81;100123.69;4974895;28;65050;-61
2021/07/24 07:04:32;;;;;;;;;8.00;7.00;;;;;24.20;50.01;100118.41;4974115;28;45421;-61
2021/07/24 07:06:58;;;;;;;;;6.75;6.75;;;;;24.26;50.03;100122.84;4975550;28;45375;-60
2021/07/24 07:09:23;;;;;;;;;5.50;5.00;;;;;24.33;49.52;100117.31;4974628;28;69387;-60
2021/07/24 07:11:48;;;;;;;;;6.00;6.00;;;;;24.39;49.11;100117.16;4975661;28;45519;-60
2021/07/24 07:14:14;;;;;;;;;4.50;4.00;;;;;24.45;49.07;100115.41;4975217;28;46071;-60
2021/07/24 07:16:39;;;;;;;;;4.50;3.00;;;;;24.53;48.60;100115.03;4974469;28;73094;-61
2021/07/24 07:19:06;;;;;;;;;6.00;6.00;;;;;24.60;48.21;100109.53;4974882;28;61665;-61
2021/07/24 07:21:32;;;;;;;;;6.75;5.00;;;;;24.66;47.90;100097.81;4975233;28;45510;-61
2021/07/24 07:23:57;;;;;;;;;5.50;5.25;;;;;24.72;48.12;100106.81;4975027;28;46984;-60
2021/07/24 07:26:28;;;;;;;;;6.25;3.75;;;;;24.79;47.60;100118.22;4974225;28;73889;-61
2021/07/24 07:28:54;;;;;;;;;4.00;4.00;;;;;24.88;47.19;100118.66;4975264;28;45313;-61
2021/07/24 07:31:20;;;;;;;;;6.00;4.00;;;;;24.96;47.04;100112.88;4972797;28;45434;-60
2021/07/24 07:33:45;;;;;;;;;6.25;5.00;;;;;25.06;46.44;100109.56;4974120;28;75304;-61
2021/07/24 07:36:11;;;;;;;;;5.75;4.00;;;;;25.12;46.25;100107.75;4975150;28;45291;-61
2021/07/24 07:38:36;;;;;;;;;6.25;6.00;;;;;25.14;46.13;100113.72;4974421;28;61301;-61
2021/07/24 07:41:01;;;;;;;;;5.25;5.00;;;;;25.19;46.04;100113.78;4974554;28;53001;-61
2021/07/24 07:43:27;;;;;;;;;7.00;4.75;;;;;25.22;45.82;100107.94;4974401;28;61669;-61
2021/07/24 07:45:52;;;;;;;;;4.50;3.00;;;;;25.27;46.08;100107.19;4974023;28;69732;-61
2021/07/24 07:48:18;;;;;;;;;8.25;6.25;;;;;25.31;45.28;100116.41;4975223;28;45331;-60
2021/07/24 07:50:43;;;;;;;;;5.50;5.50;;;;;25.39;45.59;100109.81;4975180;28;45264;-61
2021/07/24 07:53:09;;;;;;;;;4.75;4.00;;;;;25.48;45.40;100119.09;4975019;28;45340;-60
2021/07/24 07:55:36;;;;;;;;;5.00;3.25;;;;;25.59;44.77;100120.88;4974892;28;45892;-61
2021/07/24 07:58:08;;;;;;;;;5.00;4.00;;;;;25.68;44.27;100115.91;4975219;28;45342;-62
2021/07/24 08:00:34;;;;;;;;;5.25;3.75;;;;;25.73;44.39;100121.34;4973393;28;45811;-60
2021/07/24 08:03:00;;;;;;;;;4.75;4.50;;;;;25.80;43.72;100126.56;4973493;28;73642;-62
2021/07/24 08:05:25;;;;;;;;;6.50;5.00;;;;;25.84;43.52;100116.94;4974682;28;45530;-60
2021/07/24 08:07:51;;;;;;;;;4.75;4.50;;;;;25.88;43.50;100126.16;4974937;28;45304;-60
2021/07/24 08:10:16;;;;;;;;;5.00;5.00;;;;;25.95;43.42;100123.28;4973107;28;48982;-60
2021/07/24 08:12:42;;;;;;;;;5.00;4.00;;;;;26.04;43.16;100112.88;4974556;28;45255;-61
2021/07/24 08:15:08;;;;;;;;;4.00;4.00;;;;;26.13;43.52;100114.09;4973482;28;45804;-60
2021/07/24 08:17:33;;;;;;;;;4.00;3.00;;;;;26.20;43.04;100106.66;4974491;28;45395;-61
2021/07/24 08:19:58;;;;;;;;;5.50;4.00;;;;;26.30;43.04;100107.84;4973777;28;70558;-60
2021/07/24 08:22:24;;;;;;;;;7.25;5.00;;;;;26.42;42.62;100113.91;4973199;28;72882;-61
2021/07/24 08:24:49;;;;;;;;;4.50;4.50;;;;;26.55;42.03;100101.09;4972852;28;57889;-61
2021/07/24 08:27:14;;;;;;;;;5.00;4.50;;;;;26.67;42.29;100107.16;4974262;28;45720;-61
2021/07/24 08:29:40;;;;;;;;;6.00;5.00;;;;;26.76;42.04;100105.63;4973900;28;63797;-60
2021/07/24 08:32:09;;;;;;;;;4.00;4.00;;;;;26.83;41.72;100107.34;4973591;28;71213;-61
2021/07/24 08:34:34;;;;;;;;;3.00;3.00;;;;;26.89;41.59;100109.00;4973297;28;45763;-60
2021/07/24 08:37:00;;;;;;;;;4.00;4.00;;;;;26.95;41.12;100102.59;4974674;28;45334;-61
2021/07/24 08:39:25;;;;;;;;;5.00;4.00;;;;;27.02;41.17;100097.00;4973573;28;69446;-61
2021/07/24 08:41:50;;;;;;;;;5.50;4.00;;;;;27.14;40.98;100094.09;4973849;28;50341;-60
2021/07/24 08:44:16;;;;;;;;;5.25;5.00;;;;;27.21;40.84;100102.78;4973338;28;69074;-61
2021/07/24 08:46:41;;;;;;;;;4.75;4.00;;;;;27.33;40.26;100097.22;4974306;28;45621;-60
2021/07/24 08:49:07;;;;;;;;;5.50;5.50;;;;;27.48;39.92;100091.97;4972294;28;62143;-61
2021/07/24 08:51:35;;;;;;;;;6.75;4.50;;;;;27.59;39.58;100092.03;4973807;28;45506;-61
2021/07/24 08:54:00;;;;;;;;;4.25;4.25;;;;;27.70;39.11;100085.63;4973107;28;45719;-61
2021/07/24 08:56:26;;;;;;;;;5.50;4.00;;;;;27.82;39.62;100093.50;4974476;28;45455;-61
2021/07/24 08:58:53;;;;;;;;;3.25;3.25;;;;;27.94;39.32;100098.69;4972978;28;45396;-62
2021/07/24 09:01:19;;;;;;;;;4.50;4.50;;;;;28.03;38.65;100093.59;4974102;28;46091;-61
2021/07/24 09:03:45;;;;;;;;;3.25;3.25;;;;;28.12;38.08;100100.13;4974174;28;45319;-61
2021/07/24 09:06:10;;;;;;;;;5.00;4.00;;;;;28.18;38.09;100096.38;4974274;28;45359;-62
2021/07/24 09:08:36;;;;;;;;;4.25;3.00;;;;;28.28;38.48;100093.69;4973047;28;45298;-61
2021/07/24 09:11:01;;;;;;;;;3.25;3.25;;;;;28.39;38.47;100088.34;4973172;28;72379;-61
2021/07/24 09:13:27;;;;;;;;;3.75;3.75;;;;;28.50;37.94;100098.09;4972623;28;51604;-61
2021/07/24 09:15:53;;;;;;;;;4.25;3.50;;;;;28.61;37.47;100100.81;4973253;28;64516;-61
2021/07/24 09:18:18;;;;;;;;;6.50;3.75;;;;;28.67;37.01;100094.31;4973966;28;45174;-61
2021/07/24 09:20:45;;;;;;;;;9.00;9.00;;;;;28.71;37.13;100108.94;4972146;28;65513;-61
2021/07/24 09:23:24;;;;;;;;;3.25;3.00;;;;;28.75;36.64;100110.00;4971599;28;50813;-61
2021/07/24 09:25:49;;;;;;;;;4.75;3.75;;;;;28.81;36.86;100116.28;4974278;28;45532;-61
2021/07/24 09:28:15;;;;;;;;;3.75;3.00;;;;;28.82;36.36;100110.59;4971821;28;69403;-60
2021/07/24 09:30:40;;;;;;;;;4.25;2.75;;;;;28.80;36.12;100107.34;4972406;28;75537;-60
2021/07/24 09:33:09;;;;;;;;;3.75;2.00;;;;;28.79;36.76;100104.94;4973873;28;45256;-61
2021/07/24 09:35:51;;;;;;;;;4.00;4.00;;;;;28.82;36.27;100110.59;4974030;28;45509;-60
2021/07/24 09:38:27;;;;;;;;;2.50;2.50;;;;;28.83;37.21;100109.50;4977000;28;45205;-61
2021/07/24 09:40:53;;;;;;;;;3.50;3.50;;;;;28.85;36.33;100110.06;4976510;28;46395;-62
2021/07/24 09:43:31;;;;;;;;;2.75;2.75;;;;;28.91;36.24;100110.06;4977779;28;45368;-62
2021/07/24 09:46:15;;;;;;;;;6.00;2.75;;;;;28.94;36.64;100109.53;4956590;28;45364;-62
2021/07/24 09:48:42;;;;;;;;;2.00;2.00;;;;;28.99;36.10;100110.34;4954519;28;45571;-62
2021/07/24 09:51:07;;;;;;;;;6.75;4.50;;;;;29.05;35.82;100113.03;4956142;28;45466;-60
2021/07/24 09:53:39;;;;;;;;;2.25;2.25;;;;;29.03;35.83;100116.03;4956607;28;45348;-61
2021/07/24 09:56:05;;;;;;;;;2.75;2.25;;;;;29.00;35.58;100108.44;4956038;28;45302;-60
2021/07/24 09:58:30;;;;;;;;;4.50;4.00;;;;;28.94;36.64;100112.22;4955872;28;45248;-61
2021/07/24 10:01:03;;;;;;;;;4.75;3.00;;;;;28.89;36.85;100104.91;4956710;28;45791;-61
2021/07/24 10:03:29;;;;;;;;;5.75;5.75;;;;;28.81;36.47;100113.59;4956789;28;45342;-60
2021/07/24 10:05:54;;;;;;;;;3.25;3.25;;;;;28.71;36.88;100114.34;4955584;28;45419;-61
2021/07/24 10:08:20;;;;;;;;;3.50;3.50;;;;;28.62;37.07;100110.53;4938528;28;69431;-61
2021/07/24 10:10:45;;;;;;;;;4.50;4.00;;;;;28.52;37.30;100112.16;4954434;28;72413;-61
2021/07/24 10:13:12;;;;;;;;;3.75;2.75;;;;;28.45;37.86;100111.59;4956907;28;45169;-61
2021/07/24 10:15:41;;;;;;;;;2.75;2.75;;;;;28.39;36.93;100115.34;4956865;28;45351;-61
2021/07/24 10:18:08;;;;;;;;;3.75;3.75;;;;;28.33;37.17;100111.00;4956813;28;45253;-60
2021/07/24 10:20:46;;;;;;;;;3.75;3.25;;;;;28.38;36.89;100113.72;4956723;28;45904;-62
2021/07/24 10:23:12;;;;;;;;;6.50;3.75;;;;;28.44;37.10;100115.38;4956727;28;45443;-62
2021/07/24 10:25:47;;;;;;;;;4.00;3.00;;;;;28.52;37.54;100112.16;4955687;28;45418;-60
2021/07/24 10:28:13;;;;;;;;;3.50;3.50;;;;;28.63;37.75;100110.28;4955360;28;45450;-61
2021/07/24 10:30:39;;;;;;;;;3.25;2.50;;;;;28.71;37.38;100111.63;4939075;28;47050;-61
2021/07/24 10:33:04;;;;;;;;;3.50;3.50;;;;;28.79;36.23;100111.13;4938222;28;73163;-62
2021/07/24 10:35:39;;;;;;;;;2.50;2.00;;;;;28.88;37.04;100114.94;4954398;28;67854;-61
2021/07/24 10:38:28;;;;;;;;;4.00;3.00;;;;;29.01;36.17;100110.06;4956746;28;45228;-62
2021/07/24 10:40:53;;;;;;;;;3.75;2.50;;;;;29.18;36.58;100102.47;4955145;28;45304;-61
2021/07/24 10:44:03;;;;;;;;;4.75;3.00;;;;;29.39;35.70;100107.91;4955439;28;73190;-61
2021/07/24 10:46:41;;;;;;;;;3.00;3.00;;;;;29.52;36.25;100097.59;4956542;28;45469;-60
2021/07/24 10:49:19;;;;;;;;;2.75;2.75;;;;;29.62;35.67;100100.28;4955754;28;45537;-60
2021/07/24 10:51:54;;;;;;;;;4.00;3.00;;;;;29.75;35.60;100105.09;4956007;28;46184;-62
2021/07/24 10:54:19;;;;;;;;;4.00;3.00;;;;;29.89;35.86;100109.94;4955060;28;46017;-61
2021/07/24 10:56:45;;;;;;;;;5.00;4.00;;;;;30.02;35.06;100108.56;4956833;28;45383;-61
2021/07/24 10:59:13;;;;;;;;;2.75;2.75;;;;;30.16;35.08;100103.38;4954214;28;66345;-62
2021/07/24 11:01:45;;;;;;;;;4.00;3.25;;;;;30.29;34.88;100104.66;4956113;28;45422;-62
2021/07/24 11:04:36;;;;;;;;;3.00;3.00;;;;;30.43;34.44;100102.13;4956261;28;45198;-62
2021/07/24 11:07:17;;;;;;;;;2.50;2.25;;;;;30.50;34.14;100098.00;4956185;28;45347;-61
2021/07/24 11:09:43;;;;;;;;;3.00;3.00;;;;;30.55;33.71;100091.75;4956102;28;45610;-61
2021/07/24 11:12:12;;;;;;;;;3.00;3.00;;;;;30.63;33.15;100098.50;4954738;28;47715;-62
2021/07/24 11:14:37;;;;;;;;;4.75;2.25;;;;;30.72;33.41;100099.53;4955881;28;45479;-61
2021/07/24 11:17:05;;;;;;;;;3.00;3.00;;;;;30.83;33.14;100094.84;4956294;28;45378;-61
2021/07/24 11:19:43;;;;;;;;;3.25;3.00;;;;;30.90;32.89;100099.97;4955932;28;45378;-60
2021/07/24 11:22:18;;;;;;;;;4.00;4.00;;;;;30.93;32.19;100100.19;4955769;28;46134;-62
2021/07/24 11:24:44;;;;;;;;;1.75;1.75;;;;;30.94;33.03;100112.66;4955756;28;45715;-61